Andacollo, Argentina
Current Conditions -  °F | °C
As of 8:00 AM on Thursday 23 Oct 2014 (Local Time) from SCIC Reporting Station
Clear Clear  
Wind Chill: 57°   Ceiling: Unl
Heat Index: 57°   Visibility: 6mi
Dew Point: 52°   Wind: 6mph
Humidity: 82%   Direction: 170°S
Pressure: 29.97"   Gusts: NA
Location:  37.05°S, 70.07°W
Report Text: SCIC 231100Z AUTO 17005KT 9999 NCD 14/11 Q1015
Loading
Personal Weather Stations






























Interactive Weather Map
Tropical Storm Tracking
New forecast layout! Learn more

10-Day Weather Forecast

Advertisements
Track Severe Weather on mobile